Date,TemperatureHighF,TemperatureAvgF,TemperatureLowF,DewpointHighF,DewpointAvgF,DewpointLowF,HumidityHigh,HumidityAvg,HumidityLow,PressureMaxIn,PressureMinIn,WindSpeedMaxMPH,WindSpeedAvgMPH,GustSpeedMaxMPH,PrecipitationSumIn
2013-1-1,39,33,23,30,21,10,81,64,45,29.89,29.70,14,4,21,0.00
2013-1-2,32,23,16,13,9,5,66,56,43,30.05,29.86,14,4,21,0.00
2013-1-3,26,17,8,10,1,-3,62,50,34,30.11,29.96,9,3,15,0.00
2013-1-4,40,30,20,23,18,10,77,63,40,29.96,29.79,21,5,22,0.00
2013-1-5,42,33,26,22,20,14,80,59,36,30.23,29.84,12,4,16,0.00
2013-1-6,42,34,26,34,28,21,94,80,60,30.19,29.91,16,3,19,0.00
2013-1-7,39,33,28,33,29,26,94,86,69,30.37,29.93,14,3,18,0.00
2013-1-8,47,38,27,34,30,26,96,76,48,30.35,30.23,19,5,28,0.00
2013-1-9,45,38,28,40,33,26,96,83,64,30.36,29.97,19,4,21,0.00
2013-1-10,47,41,34,33,22,18,66,48,32,30.49,30.02,16,4,21,0.00
2013-1-11,44,37,29,38,31,23,96,79,62,30.48,30.19,8,2,10,0.00
2013-1-12,48,44,39,46,42,38,96,95,92,30.21,30.09,7,2,9,0.00
2013-1-13,53,48,44,52,47,42,96,96,96,30.13,29.98,13,4,18,0.00
2013-1-14,61,54,41,57,46,26,96,79,45,30.23,29.85,16,4,20,0.00
2013-1-15,43,40,37,39,34,31,96,81,65,30.26,30.17,8,2,10,0.00
2013-1-16,40,36,34,36,34,31,96,93,73,30.20,29.75,6,2,8,0.00
2013-1-17,44,37,32,36,30,17,96,79,55,30.06,29.82,14,4,16,0.00
2013-1-18,32,24,20,17,1,-9,54,36,24,30.43,30.00,24,5,25,0.00
2013-1-19,49,39,21,35,24,6,76,57,38,30.38,29.89,27,7,39,0.00
2013-1-20,55,45,29,37,25,6,74,49,25,29.89,29.53,25,8,30,0.00
2013-1-21,32,28,23,25,8,0,92,46,27,30.08,29.74,11,3,13,0.00
2013-1-22,28,22,14,26,10,-3,93,61,32,30.04,29.70,11,3,18,0.00
2013-1-23,18,13,8,0,-6,-10,61,43,30,30.11,30.03,13,4,17,0.00
2013-1-24,20,12,5,-6,-10,-12,48,37,25,30.17,30.01,15,4,20,0.00
2013-1-25,29,18,9,13,-7,-12,74,34,19,30.25,30.02,11,3,15,0.00
2013-1-26,26,19,14,14,5,-6,85,58,30,30.18,29.96,14,4,19,0.00
2013-1-27,30,21,13,2,-1,-4,58,40,25,30.42,30.18,17,4,19,0.00
2013-1-28,35,27,17,33,12,-3,96,57,25,30.41,29.97,8,2,10,0.00
2013-1-29,37,34,31,35,33,30,96,95,92,30.18,29.97,7,2,9,0.00
2013-1-30,62,51,35,60,50,34,96,95,93,30.14,29.48,30,7,33,0.00
2013-1-31,61,50,33,60,39,12,96,70,33,29.58,28.99,30,9,41,0.00
2013-2-1,35,30,23,13,7,1,49,38,25,30.04,29.58,16,6,20,0.00
2013-2-2,29,23,22,14,3,1,55,41,37,30.10,30.02,10,4,16,0.00
2013-2-3,33,27,24,26,23,14,92,84,57,30.02,29.68,11,4,16,0.00
2013-2-4,33,26,21,23,12,3,91,60,33,29.92,29.68,17,4,21,0.00
2013-2-5,30,27,23,28,15,7,93,60,43,30.00,29.90,10,2,11,0.00
2013-2-6,41,32,26,32,22,6,95,69,40,30.24,29.88,11,3,18,0.00
2013-2-7,30,26,20,22,6,-1,72,44,27,30.49,30.24,11,3,13,0.00
2013-2-8,35,32,30,33,29,22,96,87,71,30.44,29.44,22,9,32,0.00
2013-2-9,30,29,28,29,28,26,96,96,96,29.45,29.43,2,2,2,0.00
2013-2-13,45,37,31,32,28,22,99,75,42,29.79,29.65,2,2,2,0.00
2013-2-14,43,36,31,35,30,25,100,82,50,29.98,29.67,10,2,11,0.00
2013-2-15,50,39,30,41,35,30,100,88,54,30.00,29.90,16,4,21,0.00
2013-2-16,38,35,33,37,35,32,100,99,94,29.92,29.64,16,4,18,0.00
2013-2-17,33,24,19,32,19,6,100,84,52,29.64,29.30,23,8,32,0.00
2013-2-18,34,23,15,9,6,3,62,47,32,30.13,29.61,18,6,23,0.00
2013-2-19,49,36,23,44,26,4,100,68,42,30.13,29.56,13,4,16,0.00
2013-2-20,44,35,26,44,25,13,100,71,41,29.75,29.51,18,5,20,0.00
2013-2-21,35,29,26,22,16,14,72,59,43,30.10,29.75,18,6,20,0.00
2013-2-22,39,33,28,31,26,21,82,74,64,30.33,30.10,15,4,19,0.00
2013-2-23,41,36,32,37,33,28,100,90,73,30.31,29.87,12,3,14,0.00
2013-2-24,40,36,31,40,36,31,100,100,100,29.87,29.61,18,5,20,0.00
2013-2-25,40,34,30,36,33,30,100,95,79,30.22,29.84,11,3,16,0.00
2013-2-26,46,36,27,37,32,27,100,87,60,30.31,30.12,11,3,15,0.00
2013-2-27,42,40,38,42,40,37,100,100,97,30.13,29.52,23,7,27,0.00
2013-2-28,46,39,36,44,39,35,100,98,90,29.63,29.50,7,2,9,0.00
2013-3-1,41,37,35,38,35,32,100,93,81,29.65,29.50,10,4,14,0.00
2013-3-2,43,38,32,33,31,29,95,77,61,29.65,29.60,10,3,13,0.00
2013-3-3,45,38,33,37,32,28,100,80,55,29.61,29.53,9,2,10,0.00
2013-3-4,43,35,29,33,27,22,100,77,44,29.68,29.53,17,4,22,0.00
2013-3-5,42,36,32,37,31,25,100,82,67,30.03,29.69,15,5,18,0.00
2013-3-6,42,38,34,39,36,34,100,95,81,30.07,29.98,26,8,26,0.00
2013-3-7,36,34,32,36,34,31,100,99,96,29.98,29.90,24,11,33,0.00
2013-3-8,39,34,32,36,32,24,99,92,55,30.08,29.86,23,8,28,0.00
2013-3-9,40,37,34,32,28,25,87,70,61,30.31,30.08,17,7,24,0.00
2013-3-10,44,38,34,34,30,26,91,73,51,30.38,30.30,10,4,13,0.00
2013-3-11,35,34,34,31,31,30,86,86,85,30.31,30.29,7,3,10,0.00
2013-3-12,44,43,43,41,41,41,92,92,92,30.16,30.15,10,5,16,0.00
2013-3-13,55,47,35,52,28,4,97,56,16,29.77,29.67,13,4,25,0.00
2013-3-14,41,33,24,17,6,-6,52,33,15,29.80,29.68,12,5,18,0.00
2013-3-15,43,32,21,29,12,6,80,46,23,29.85,29.63,15,6,21,0.00
2013-3-16,43,36,28,30,20,8,86,55,24,29.85,29.66,13,4,24,0.00
2013-3-17,42,33,26,26,16,6,86,54,26,30.29,29.84,16,4,20,0.00
2013-3-18,40,30,21,31,14,3,99,52,39,30.43,30.23,12,5,17,0.00
2013-3-19,40,35,30,40,35,30,100,100,98,30.23,29.50,21,9,26,0.00
2013-3-20,41,33,26,30,20,12,100,65,31,29.79,29.63,25,6,25,0.00
2013-3-21,37,31,26,31,25,19,100,79,50,29.80,29.57,9,3,13,0.00
2013-3-22,44,34,28,31,22,10,100,66,26,29.71,29.57,13,4,16,0.00
2013-3-23,45,36,28,22,16,10,72,46,25,29.74,29.60,15,6,23,0.00
2013-3-24,48,37,29,29,20,14,85,51,28,29.79,29.71,11,5,16,0.00
2013-3-25,48,39,32,37,31,27,96,76,47,29.74,29.47,16,6,21,0.00
2013-3-26,51,40,34,35,25,16,99,58,27,29.74,29.46,15,6,20,0.00
2013-3-27,55,42,30,34,20,12,77,47,19,29.82,29.70,13,4,18,0.00
2013-3-28,48,42,37,38,32,25,98,72,43,29.98,29.82,14,5,17,0.00
2013-3-29,58,46,34,35,31,25,86,60,29,30.00,29.94,11,4,16,0.00
2013-3-30,55,45,36,33,28,21,83,52,28,30.06,29.99,12,4,15,0.00
2013-3-31,62,46,30,40,25,8,91,54,13,30.09,29.74,18,5,31,0.00
2013-4-1,62,49,35,47,38,10,100,71,35,29.76,29.50,27,7,32,0.00
2013-4-2,47,35,29,17,10,-4,52,36,12,29.94,29.76,17,6,23,0.00
2013-4-3,55,38,29,19,14,8,65,40,17,30.15,29.93,20,7,25,0.00
2013-4-4,64,42,27,36,20,11,93,47,13,30.30,30.08,16,6,21,0.00
2013-4-5,67,46,38,44,36,26,100,70,32,30.08,29.66,16,6,23,0.00
2013-4-6,54,39,29,28,17,4,93,46,14,30.35,29.88,16,6,23,0.00
2013-4-7,58,42,26,46,33,15,100,74,20,30.34,30.03,26,8,34,0.00
2013-4-8,70,53,46,51,44,36,100,76,30,30.13,29.96,16,6,22,0.00
2013-4-9,82,55,43,58,48,40,100,81,25,30.12,29.85,14,5,20,0.00
2013-4-10,66,50,44,54,47,44,100,92,48,30.03,29.88,12,4,14,0.00
2013-4-11,58,47,42,53,44,38,100,93,55,30.15,29.82,12,4,14,0.00
2013-4-12,43,40,38,43,39,36,100,97,82,30.18,29.75,21,8,27,0.00
2013-4-13,59,42,38,48,41,38,100,96,50,29.95,29.74,15,6,24,0.00
2013-4-14,64,46,37,48,36,26,100,71,28,30.21,29.93,14,4,17,0.00
2013-4-15,60,46,33,45,39,33,100,81,43,30.41,30.21,13,4,17,0.00
2013-4-16,70,52,35,54,42,32,100,76,28,30.42,30.10,22,7,30,0.00
2013-4-17,71,57,44,56,43,25,100,68,19,30.34,30.07,18,6,24,0.00
2013-4-18,68,52,36,51,38,26,100,67,22,30.44,30.17,14,6,24,0.00
2013-4-19,79,64,52,69,62,51,100,94,63,30.17,29.73,23,9,32,0.00
2013-4-20,66,57,46,65,49,31,100,78,29,30.10,29.65,21,7,36,0.00
2013-4-22,41,40,40,38,38,37,92,90,88,30.64,30.58,15,7,18,0.00
2013-4-23,43,42,40,43,42,38,100,99,91,30.58,30.08,13,7,22,0.00
2013-4-24,77,53,42,57,48,42,100,86,35,30.07,29.84,20,8,33,0.00
2013-4-25,73,56,42,55,44,29,100,74,21,30.26,29.88,19,6,29,0.00
2013-4-26,64,49,39,48,43,38,100,83,42,30.43,30.26,13,4,14,0.00
2013-4-27,71,52,38,54,37,24,100,66,20,30.42,30.32,14,4,17,0.00
2013-4-28,75,55,40,52,39,30,100,62,23,30.36,30.26,17,5,23,0.00
2013-4-29,75,56,42,56,37,11,100,59,11,30.30,30.22,18,5,19,0.00
2013-4-30,71,47,36,49,38,25,100,78,19,30.35,30.27,10,3,12,0.00
2013-5-2,47,44,42,47,44,42,100,100,100,30.48,30.46,8,3,12,0.00
2013-5-3,64,48,40,52,46,39,100,95,47,30.52,30.37,12,5,14,0.00
2013-5-4,61,47,38,51,43,38,100,89,54,30.38,30.33,15,4,18,0.00
2013-5-5,67,54,39,53,45,39,100,77,40,30.33,30.28,12,5,15,0.00
2013-5-6,72,52,39,56,48,39,100,88,44,30.30,30.17,15,5,18,0.00
2013-5-7,84,61,43,63,54,43,100,82,32,30.20,30.11,16,5,18,0.00
2013-5-8,77,60,51,70,60,51,100,97,69,30.23,30.07,19,6,22,0.00
2013-5-9,72,59,56,70,59,56,100,100,94,30.06,29.89,16,3,24,0.00
2013-5-10,82,65,56,69,61,56,100,88,43,29.97,29.89,13,4,15,0.00
2013-5-11,78,63,57,68,62,57,100,97,60,29.95,29.73,25,6,26,0.00
2013-5-12,80,63,48,68,56,33,100,80,32,29.83,29.58,12,5,16,0.00
2013-5-13,73,53,42,40,33,23,85,50,17,30.02,29.83,13,4,17,0.00
2013-5-14,61,48,42,41,36,29,95,65,34,30.05,30.00,13,4,15,0.00
2013-5-17,74,59,49,51,45,36,100,64,28,30.23,30.03,10,4,13,0.00
2013-5-18,80,60,45,57,47,33,100,71,19,30.32,30.23,14,4,18,0.00
2013-5-19,78,61,49,58,53,48,100,80,38,30.36,30.25,12,4,14,0.00
2013-5-20,88,67,55,72,63,55,100,89,40,30.25,29.93,12,4,14,0.00
2013-5-21,93,62,52,74,60,52,100,93,42,30.01,29.86,13,4,23,0.00
2013-5-22,67,54,51,66,54,50,100,100,97,30.03,29.89,12,4,18,0.00
2013-5-23,82,72,65,77,71,65,100,97,80,29.93,29.85,16,7,24,0.00
2013-5-24,71,64,53,71,64,52,100,100,100,29.85,29.68,14,5,21,0.00
2013-5-25,57,50,42,57,50,42,100,100,100,29.79,29.69,13,5,17,0.00
2013-5-26,66,49,39,52,44,39,100,85,43,30.10,29.72,12,5,16,0.00
2013-5-27,80,58,43,53,41,24,100,65,13,30.18,30.07,15,4,18,0.00
2013-5-28,80,60,44,60,48,38,100,73,24,30.26,30.18,14,4,16,0.00
2013-5-29,77,63,57,71,63,57,100,99,82,30.22,30.01,11,4,17,0.00
2013-5-30,97,76,63,79,68,58,100,81,28,30.09,30.01,11,4,13,0.00
2013-5-31,104,81,65,75,65,54,100,66,23,30.10,29.96,14,4,20,0.00
2013-6-1,98,79,67,72,65,0,100,69,26,30.00,29.89,15,5,19,0.00
2013-6-2,89,74,65,73,67,60,100,81,40,29.92,29.79,22,6,26,0.00
2013-6-3,72,67,64,72,67,64,100,100,100,29.87,29.79,10,4,16,0.00
2013-6-4,74,62,52,64,50,40,100,70,35,30.10,29.82,11,4,14,0.00
2013-6-5,73,60,48,57,48,40,100,70,33,30.20,30.10,13,4,17,0.00
2013-6-6,73,62,53,62,56,50,100,83,52,30.21,30.11,16,5,19,0.00
2013-6-7,58,55,53,58,55,53,100,100,100,30.14,29.80,11,5,17,0.00
2013-6-8,54,54,54,54,54,54,100,100,100,29.80,29.75,8,3,10,0.00
2013-6-9,78,70,60,64,60,53,100,74,46,30.17,30.08,12,4,13,0.00
2013-6-10,68,61,56,64,60,56,100,99,82,30.22,30.03,13,4,17,0.00
2013-6-11,68,59,53,68,59,53,100,100,100,30.03,29.58,14,5,19,0.00
2013-6-12,71,60,53,66,58,53,100,96,63,29.82,29.57,12,4,19,0.00
2013-6-13,66,57,52,63,56,51,100,98,75,29.83,29.66,12,4,15,0.00
2013-6-14,66,56,51,60,55,50,100,94,65,29.77,29.63,16,4,18,0.00
2013-6-15,80,64,54,60,51,36,100,69,23,29.95,29.76,13,4,14,0.00
2013-6-16,79,66,52,66,55,44,100,74,32,29.95,29.75,11,4,17,0.00
2013-6-17,89,70,58,69,61,51,100,78,31,29.94,29.79,15,4,23,0.00
2013-6-18,74,62,56,70,61,56,100,97,77,29.97,29.89,10,3,13,0.00
2013-6-19,70,60,55,65,56,49,100,88,57,30.16,29.89,13,4,16,0.00
2013-6-20,77,65,53,67,57,49,100,80,44,30.27,30.16,12,4,16,0.00
2013-6-21,86,69,57,68,60,56,100,75,39,30.28,30.20,10,4,15,0.00
2013-6-22,86,70,61,64,58,52,100,68,36,30.24,30.14,12,4,17,0.00
2013-6-23,90,75,64,72,67,63,100,80,45,30.18,30.02,14,5,17,0.00
2013-6-24,95,79,67,78,63,0,100,68,37,30.04,29.88,15,4,20,0.00
2013-6-25,92,77,66,79,44,0,100,44,40,29.92,29.75,10,4,16,0.00
2013-6-26,86,73,65,76,71,65,100,93,60,29.87,29.73,10,3,11,0.00
2013-6-27,67,64,62,67,64,62,100,100,100,29.88,29.77,9,3,10,0.00
2013-6-28,75,69,63,75,69,63,100,100,100,29.78,29.54,14,5,18,0.00
2013-6-29,82,72,69,78,71,69,100,97,77,29.76,29.54,18,5,21,0.00
2013-6-30,84,73,69,78,72,69,100,96,73,29.97,29.75,13,5,17,0.00
2013-7-1,82,73,69,80,73,69,100,100,90,30.11,29.96,15,4,22,0.00
2013-7-2,81,71,61,80,71,61,100,99,89,30.21,30.10,9,4,16,0.00
2013-7-3,90,74,61,79,71,61,100,93,63,30.22,30.15,15,4,17,0.00
2013-7-4,94,81,71,82,75,68,100,85,44,30.21,30.11,12,5,15,0.00
2013-7-5,95,82,73,80,74,66,100,82,45,30.17,30.05,10,5,17,0.00
2013-7-6,94,81,73,80,74,68,100,83,46,30.08,29.98,10,4,12,0.00
2013-7-7,92,78,70,78,72,66,100,85,46,30.03,29.92,12,3,13,0.00
2013-7-8,87,73,65,82,72,65,100,97,76,30.07,29.92,12,3,14,0.00
2013-7-9,72,67,65,71,67,65,100,100,100,30.12,30.05,8,3,10,0.00
2013-7-10,86,74,66,83,74,66,100,98,81,30.09,29.82,14,4,19,0.00
2013-7-11,79,74,70,78,74,70,100,100,99,29.92,29.79,9,3,12,0.00
2013-7-12,71,67,64,71,67,64,100,99,94,30.20,29.92,10,4,16,0.00
2013-7-13,75,68,63,75,68,63,100,100,100,30.32,30.20,10,3,11,0.00
2013-7-14,88,75,67,83,74,67,100,98,76,30.31,30.20,11,4,14,0.00
2013-7-15,90,78,70,81,72,63,100,85,46,30.20,30.10,10,3,12,0.00
2013-7-16,90,77,70,76,71,66,100,83,47,30.17,30.10,12,3,12,0.00
2013-7-17,92,78,67,76,70,65,100,80,47,30.19,30.02,12,4,16,0.00
2013-7-18,88,79,73,80,74,67,100,88,56,30.03,29.96,13,5,16,0.00
2013-7-19,98,83,74,83,76,66,100,83,37,29.96,29.76,10,4,20,0.00
2013-7-20,91,78,73,83,78,73,100,98,69,29.81,29.72,10,4,16,0.00
2013-7-21,80,73,67,76,69,62,100,90,57,30.01,29.81,12,4,16,0.00
2013-7-22,81,71,65,76,70,65,100,97,75,30.02,29.90,12,4,13,0.00
2013-7-23,84,73,68,83,73,68,100,99,93,29.90,29.55,13,4,15,0.00
2013-7-24,88,76,68,81,73,64,100,91,52,29.93,29.59,9,3,13,0.00
2013-7-25,68,62,60,65,61,59,100,96,83,30.09,29.94,11,5,16,0.00
2013-7-26,67,64,61,67,64,61,100,100,100,30.05,29.91,15,4,17,0.00
2013-7-27,85,71,61,76,65,54,100,86,38,30.07,30.02,10,4,14,0.00
2013-7-28,74,68,66,74,68,66,100,100,100,30.03,29.97,9,3,11,0.00
2013-7-29,83,72,66,79,72,66,100,99,86,30.04,29.99,10,3,12,0.00
2013-7-30,82,70,62,70,65,57,100,84,48,30.10,30.03,12,4,13,0.00
2013-7-31,81,70,60,69,62,52,100,81,38,30.14,30.06,10,4,12,0.00
2013-8-1,85,70,61,72,65,56,100,86,43,30.07,29.91,12,4,15,0.00
2013-8-2,84,71,62,77,66,57,100,89,46,29.91,29.80,8,3,12,0.00
2013-8-3,78,70,66,70,68,66,100,93,72,29.89,29.80,11,4,15,0.00
2013-8-4,79,67,58,68,62,54,100,84,43,29.89,29.78,10,3,13,0.00
2013-8-5,78,64,55,60,52,37,100,71,26,30.05,29.89,10,3,12,0.00
2013-8-6,79,65,51,64,53,40,100,72,27,30.17,30.05,14,4,16,0.00
2013-8-7,80,67,56,69,57,46,100,75,35,30.20,30.14,15,4,20,0.00
2013-8-8,83,71,63,75,68,57,100,91,66,30.16,30.03,15,4,18,0.00
2013-8-9,74,72,70,74,72,70,100,100,100,30.06,29.78,17,5,24,0.00
2013-8-10,86,74,64,73,64,51,100,74,34,30.01,29.80,9,3,12,0.00
2013-8-11,80,67,56,66,57,43,100,74,31,30.09,30.01,12,4,14,0.00
2013-8-12,83,70,60,69,62,54,100,81,38,30.05,29.94,10,3,12,0.00
2013-8-13,73,67,62,72,67,62,100,100,92,29.94,29.71,8,3,10,0.00
2013-8-14,78,67,59,64,56,46,100,73,35,29.96,29.68,13,4,17,0.00
2013-8-15,81,66,53,61,52,39,100,70,26,30.13,29.97,9,3,13,0.00
2013-8-16,84,67,55,64,56,45,100,72,27,30.20,30.12,8,3,13,0.00
2013-8-17,78,66,57,66,62,57,100,88,50,30.29,30.20,11,3,14,0.00
2013-8-18,83,68,58,71,63,56,100,87,41,30.28,30.10,11,3,13,0.00
2013-8-19,85,70,58,68,61,50,100,77,30,30.10,29.96,7,3,11,0.00
2013-8-20,87,73,63,74,66,60,100,82,43,30.10,29.98,10,3,15,0.00
2013-8-21,89,75,62,72,66,57,100,77,38,30.15,30.04,10,3,12,0.00
2013-8-22,87,73,66,76,71,66,100,93,54,30.05,29.85,12,4,14,0.00
2013-8-23,78,68,60,71,64,57,100,88,55,30.11,29.82,11,4,17,0.00
2013-8-24,74,63,52,66,55,36,100,79,31,30.33,30.11,11,4,14,0.00
2013-8-25,82,66,52,61,53,41,100,68,25,30.36,30.21,12,4,15,0.00
2013-8-26,81,68,64,70,64,59,98,87,52,30.21,29.92,12,4,17,0.00
2013-8-27,72,68,64,72,68,64,100,100,100,29.90,29.85,8,3,11,0.00
2013-8-28,78,66,61,75,66,61,100,100,90,29.98,29.87,10,3,11,0.00
2013-8-29,65,63,60,65,63,60,100,100,100,30.08,29.96,11,3,14,0.00
2013-8-30,79,68,59,73,66,59,100,95,76,30.03,29.85,9,4,13,0.00
2013-8-31,80,73,67,79,72,67,100,99,93,29.86,29.82,10,4,14,0.00
2013-9-1,80,72,69,80,72,69,100,100,100,29.90,29.82,12,4,14,0.00
2013-9-2,82,73,70,80,73,70,100,100,92,29.90,29.74,11,4,13,0.00
2013-9-3,85,72,65,78,71,65,100,97,70,29.82,29.70,8,3,12,0.00
2013-9-4,82,69,58,66,59,50,100,76,35,29.94,29.82,9,3,13,0.00
2013-9-5,67,61,50,66,60,50,100,98,85,30.13,29.88,10,3,13,0.00
2013-9-6,70,57,48,54,48,38,100,77,34,30.25,30.11,12,4,14,0.00
2013-9-7,78,63,48,61,52,44,100,73,30,30.11,29.88,11,4,13,0.00
2013-9-8,78,65,52,66,56,39,100,76,34,30.09,29.75,12,4,22,0.00
2013-9-9,71,57,47,56,48,36,100,75,31,30.25,30.09,9,3,13,0.00
2013-9-10,76,66,54,72,65,54,100,97,87,30.19,30.04,12,4,18,0.00
2013-9-11,94,78,69,80,73,66,100,86,44,30.10,29.96,10,4,16,0.00
2013-9-12,85,75,69,77,72,69,100,93,66,29.99,29.70,14,5,20,0.00
2013-9-13,76,68,59,75,67,59,100,99,86,29.75,29.59,11,3,13,0.00
2013-9-14,72,61,52,63,58,52,100,92,60,30.06,29.75,9,3,11,0.00
2013-9-15,75,59,48,59,53,48,100,84,44,30.17,30.06,10,3,12,0.00
2013-9-16,64,58,51,62,56,46,100,94,72,30.22,30.02,16,3,16,0.00
2013-9-17,61,51,42,47,42,35,100,74,45,30.41,30.22,12,5,21,0.00
2013-9-18,75,57,43,53,44,30,100,71,23,30.33,30.15,11,3,13,0.00
2013-9-19,73,59,50,65,54,47,100,84,43,30.16,30.05,10,3,11,0.00
2013-9-20,73,61,51,64,58,51,100,91,63,30.10,30.02,10,3,12,0.00
2013-9-21,77,65,53,69,63,53,100,92,62,30.05,29.77,12,4,19,0.00
2013-9-22,71,65,53,70,63,52,100,94,58,29.82,29.64,14,4,18,0.00
2013-9-23,64,53,46,52,47,41,100,80,49,30.00,29.82,11,4,15,0.00
2013-9-24,64,51,41,53,45,41,100,84,45,30.00,29.82,10,3,15,0.00
2013-9-25,62,52,43,56,50,43,100,92,63,29.99,29.89,12,3,14,0.00
2013-9-26,63,55,50,56,53,50,100,93,74,30.11,29.98,11,4,16,0.00
2013-9-27,64,56,47,60,54,47,100,94,76,30.26,30.20,10,4,15,0.00
2013-9-28,66,55,48,64,55,48,100,99,90,30.32,30.24,10,3,12,0.00
2013-9-29,64,53,44,59,52,43,100,97,81,30.27,30.12,10,3,12,0.00
2013-9-30,64,56,48,61,56,48,100,99,91,30.12,29.97,10,3,12,0.00
2013-10-1,73,57,45,59,52,45,100,86,48,29.97,29.87,11,3,13,0.00
2013-10-2,79,65,53,65,59,53,100,83,47,29.95,29.83,9,3,15,0.00
2013-10-3,74,62,53,62,55,45,100,82,41,30.09,29.95,10,3,12,0.00
2013-10-4,65,56,51,62,56,50,100,99,83,30.10,30.04,5,2,6,0.00
2013-10-5,66,59,55,65,59,55,100,99,85,30.13,30.06,8,3,11,0.00
2013-10-6,59,58,55,59,58,55,100,100,100,30.22,30.12,13,4,15,0.00
2013-10-7,74,67,59,74,67,59,100,100,100,30.13,29.85,18,5,28,0.00
2013-10-8,64,56,49,60,52,44,100,88,52,30.36,29.90,11,3,17,0.00
2013-10-9,61,54,48,52,49,46,100,84,62,30.45,30.36,12,4,18,0.00
2013-10-10,62,56,49,61,56,49,100,100,96,30.36,30.17,11,3,13,0.00
2013-10-11,62,56,50,62,56,50,100,100,96,30.16,30.11,9,4,12,0.00
2013-10-12,61,56,51,61,56,51,100,100,98,30.38,30.13,14,5,18,0.00
2013-10-13,60,53,40,54,50,40,100,93,75,30.44,30.35,14,4,16,0.00
2013-10-14,58,47,34,55,46,34,100,96,82,30.40,30.27,13,4,14,0.00
2013-10-15,64,53,43,57,51,43,100,92,52,30.28,30.18,10,3,11,0.00
2013-10-16,61,54,47,60,54,47,100,100,100,30.18,29.92,9,3,11,0.00
2013-10-17,69,60,53,67,60,53,100,98,85,29.93,29.75,10,3,13,0.00
2013-10-18,68,60,47,63,54,43,100,81,43,29.92,29.64,11,4,18,0.00
2013-10-19,65,53,41,54,46,39,100,81,40,30.00,29.78,10,3,12,0.00
2013-10-20,61,52,40,53,43,27,100,75,29,30.03,29.71,11,3,16,0.00
2013-10-21,64,50,37,50,41,34,100,76,33,30.13,30.02,9,3,12,0.00
2013-10-22,68,56,46,59,49,39,100,82,36,30.01,29.71,12,4,18,0.00
2013-10-23,53,46,38,46,41,34,100,85,52,29.82,29.61,7,2,11,0.00
2013-10-24,52,44,38,42,32,21,100,66,31,29.90,29.63,13,4,18,0.00
2013-10-25,51,41,33,38,31,26,99,71,42,30.17,29.89,11,3,12,0.00
2013-10-26,54,42,30,42,33,25,100,74,33,30.17,29.90,15,4,24,0.00
2013-10-27,56,46,41,46,37,26,100,72,38,30.08,29.84,11,3,13,0.00
2013-10-28,59,45,32,38,32,27,100,65,33,30.34,30.07,10,4,17,0.00
2013-10-29,49,39,30,40,34,28,100,85,60,30.42,30.34,9,3,12,0.00
2013-10-30,49,39,29,49,39,29,100,100,98,30.38,30.20,7,2,8,0.00
2013-10-31,62,50,34,62,50,34,100,99,95,30.25,29.85,19,4,21,0.00
2013-11-1,70,64,60,69,63,59,100,99,88,29.85,29.50,21,8,37,0.00
2013-11-2,63,56,51,59,53,46,100,92,56,29.73,29.61,9,3,12,0.00
2013-11-3,52,43,36,51,42,25,100,96,62,30.39,29.72,14,4,19,0.00
2013-11-4,41,36,28,33,28,24,100,74,53,30.69,30.39,12,4,16,0.00
2013-11-5,47,38,29,40,34,29,100,88,59,30.70,30.53,13,3,14,0.00
2013-11-6,59,49,38,53,46,38,100,89,55,30.53,30.06,14,4,16,0.00
2013-11-7,64,54,41,64,54,39,100,100,90,30.06,29.68,17,4,21,0.00
2013-11-8,49,39,32,40,31,23,100,76,45,30.10,29.82,15,4,17,0.00
2013-11-9,44,37,28,35,26,19,98,66,37,30.20,30.06,12,3,14,0.00
2013-11-10,54,45,40,51,42,34,100,90,64,30.06,29.74,10,3,18,0.00
2013-11-11,50,44,36,42,31,21,89,63,33,30.10,29.86,14,4,16,0.00
2013-11-12,50,36,26,43,30,20,100,79,50,30.18,29.89,14,4,19,0.00
2013-11-13,27,26,24,22,18,13,86,74,57,30.26,30.17,7,3,9,0.00
2013-11-14,49,38,27,29,20,14,70,50,27,30.20,30.05,12,4,19,0.00
2013-11-15,59,47,37,47,27,12,100,51,17,30.21,30.13,16,4,20,0.00
2013-11-16,56,44,36,44,37,23,100,78,28,30.33,30.19,9,3,15,0.00
2013-11-17,58,47,33,57,46,33,100,97,66,30.32,29.88,2,2,2,0.00
2013-11-18,64,57,46,62,53,38,100,86,45,29.88,29.56,2,2,2,0.00
2013-11-19,46,39,30,40,24,17,98,56,38,30.26,29.67,2,2,2,0.00
2013-11-20,38,30,26,22,17,11,82,60,33,30.61,30.26,2,2,2,0.00
2013-11-21,46,36,26,36,27,20,98,74,36,30.63,30.39,2,2,2,0.00
2013-11-22,45,41,38,45,40,34,100,97,84,30.39,30.16,2,2,2,0.00
2013-11-23,32,30,29,20,18,17,64,60,55,29.81,29.79,2,2,2,0.00
2013-11-24,29,24,19,19,4,-7,79,44,26,30.17,29.78,2,2,2,0.00
2013-11-25,31,23,15,24,1,-10,76,39,17,30.36,30.17,2,2,2,0.00
2013-11-26,44,38,30,44,27,16,100,69,39,30.33,30.05,2,2,2,0.00
2013-11-27,62,52,38,62,52,37,100,100,100,30.05,29.20,2,2,2,0.00
2013-11-28,37,30,23,37,20,8,100,68,39,30.44,29.47,2,2,2,0.00
2013-11-29,32,26,21,21,15,8,88,64,45,30.72,30.44,2,2,2,0.00
2013-11-30,34,28,20,32,22,13,98,81,49,30.76,30.45,2,2,2,0.00
2013-12-1,47,41,34,46,40,32,100,97,87,30.46,29.99,2,2,2,0.00
2013-12-2,40,38,36,40,38,36,100,100,100,29.99,29.92,2,2,2,0.00
2013-12-3,44,37,30,43,37,30,100,100,90,29.94,29.84,2,2,2,0.00
2013-12-4,45,34,27,36,30,25,100,89,49,30.21,29.94,2,2,2,0.00
2013-12-5,55,43,28,55,43,28,100,100,100,30.22,29.92,2,2,2,0.00
2013-12-6,57,49,36,57,49,36,100,100,98,30.13,29.87,2,2,2,0.00
2013-12-7,41,33,26,38,30,20,100,89,62,30.44,30.07,2,2,2,0.00
2013-12-8,32,28,22,27,20,13,100,75,46,30.59,30.44,2,2,2,0.00
2013-12-9,32,32,29,32,8,0,100,25,78,30.49,29.87,2,2,2,0.00
2013-12-10,32,32,32,0,0,0,0,0,100,30.01,29.78,2,2,2,0.00
2013-12-11,32,32,32,0,0,0,0,0,100,30.24,30.01,2,2,2,0.00
2013-12-12,32,32,32,0,0,0,0,0,100,30.28,30.10,2,2,2,0.00
2013-12-13,32,30,0,0,0,0,0,0,100,30.36,30.02,2,2,2,0.00
2013-12-14,70,2,0,0,0,0,0,0,100,30.59,30.15,2,2,2,0.00
2013-12-15,39,30,25,0,0,0,0,0,100,30.14,29.32,2,2,2,0.00
2013-12-16,27,23,17,0,0,0,0,0,100,30.22,29.77,2,2,2,0.00
2013-12-17,32,21,10,0,0,0,0,0,100,30.28,29.89,2,2,2,0.00
2013-12-18,30,26,22,0,0,0,0,0,100,30.09,29.82,2,2,2,0.00
2013-12-19,39,30,23,0,0,0,0,0,100,30.12,29.96,2,2,2,0.00
2013-12-20,46,38,30,0,0,0,0,0,100,30.14,29.93,2,2,2,0.00
2013-12-21,55,49,42,0,0,0,0,0,100,29.99,29.89,2,2,2,0.00
2013-12-22,61,50,40,0,0,0,0,0,100,30.02,29.81,2,2,2,0.00
2013-12-23,41,38,35,0,0,0,0,0,100,30.09,29.95,2,2,2,0.00
2013-12-24,38,32,27,0,0,0,0,0,100,30.19,30.02,2,2,2,0.00
2013-12-25,28,20,16,0,0,0,0,0,100,30.55,30.19,2,2,2,0.00
2013-12-26,37,29,18,0,0,0,0,0,100,30.50,30.07,2,2,2,0.00
2013-12-27,34,28,23,0,0,0,0,0,100,30.28,30.19,2,2,2,0.00
2013-12-28,43,33,25,0,0,0,0,0,100,30.23,30.00,2,2,2,0.00
2013-12-29,43,38,30,0,0,0,0,0,100,30.05,29.34,5,2,46,0.00
2013-12-30,40,33,23,0,0,0,0,0,100,30.15,29.49,2,2,2,0.00
2013-12-31,58,22,17,0,0,0,0,0,100,30.16,30.05,2,2,2,0.00
2014-1-1,28,23,20,0,0,0,0,0,100,30.40,30.20,2,2,2,0.00
2014-1-2,30,27,24,0,0,0,0,0,100,30.37,29.77,2,2,2,0.00